Wind Cave National Park, SD

8:23 PM MDT on August 29, 2014 (GMT -0600)
RAWS CUSTER SD US | Change Station
CLOSE
Current Station
Personal Weather Station
Location: Custer, SD
Elevation: 5820 ft
Nearby Weather Stations

Elev 5820 ft 43.78 °N, 103.64 °W | Updated 59 minutes ago

Scattered Clouds
Scattered Clouds
60 °F
Feels Like 60 °F
N
1
Wind Variable Wind from ESE
Gusts 6.0 mph

Today
High -- | Low -- °F
--% Chance of Precip.
Yesterday
High -- | Low -- °F
Precip. -- in
6:14 AM 7:35 PM
Waxing Crescent, 18% visible
Pressure 29.95 in
Visibility 10.0 miles
Clouds Scattered Clouds 5000 ft
Scattered Clouds 9500 ft
Dew Point 52 °F
Humidity 74%
Rainfall 0.00 in
Snow Depth Not available.
UV 0 out of 12
Pollen 9.20 out of 12
Air Quality Not available.
Flu Activity Not available.
METAR KCUT 300153Z AUTO 00000KT 10SM SCT050 SCT095 16/11 A3011 RMK AO2 SLP142 T01560106

More Conditions Fewer Conditions

Pressure 29.95 in
Visibility 10.0 miles
Clouds Scattered Clouds 5000 ft
Scattered Clouds 9500 ft
Dew Point 52 °F
Humidity 74%
Rainfall 0.00 in
Snow Depth Not available.
UV 0 out of 12
Pollen 9.20 out of 12
Air Quality Not available.
Flu Activity Not available.
METAR KCUT 300153Z AUTO 00000KT 10SM SCT050 SCT095 16/11 A3011 RMK AO2 SLP142 T01560106

More Conditions Fewer Conditions

10-Day Weather Forecast

Almanac

Astronomy

Aug. 29, 2014 Rise Set
Actual Time 6:14 AM MDT 7:35 PM MDT
Civil Twilight 5:45 AM MDT 8:04 PM MDT
Nautical Twilight 5:09 AM MDT 8:40 PM MDT
Astronomical Twilight 4:30 AM MDT 9:18 PM MDT
Moon 10:15 AM MDT (8/29) 9:24 PM MDT (8/29)
Length of Visible Light 14h 19m
Length of Day
13h 20m
Tomorrow will be 2m 53s shorter.
Waxing Crescent, 18% of the Moon is Illuminated
Today
Waxing Crescent
Sep 2
First Quarter
Sep 8
Full
Sep 15
Last Quarter
Sep 24
New

Today's Extremes

State Highs State Lows

Community

WunderPhotos

Upload Photos

1,748,412 photos uploaded!

Nearby

Snow Depth

Station Depth Elevation
Blind Park 0 in 6890 ft

Earthquake Activity

City Distance Mag. Time & Date
No recent earthquake activity has been reported nearby.
Minimum magnitude displayed is 2.5.

Coastal Water Temperatures

Place Temperature
No Stations Reporting

Nearby Weather Stations